createdAt,value
2018-07-25T00:02:26.845Z,98837.80
2018-07-25T00:05:29.285Z,98840.05
2018-07-25T00:09:34.894Z,98842.77
2018-07-25T00:12:40.200Z,98842.31
2018-07-25T00:15:42.634Z,98847.78
2018-07-25T00:18:45.102Z,98852.38
2018-07-25T00:21:48.696Z,98847.73
2018-07-25T00:24:55.589Z,98849.75
2018-07-25T00:27:58.287Z,98853.59
2018-07-25T00:31:02.932Z,98847.94
2018-07-25T00:34:05.310Z,98851.98
2018-07-25T00:44:41.808Z,98841.31
2018-07-25T00:47:44.308Z,98840.23
2018-07-25T00:50:46.810Z,98845.27
2018-07-25T00:53:49.321Z,98848.02
2018-07-25T00:56:51.689Z,98847.25
2018-07-25T00:59:54.034Z,98844.17
2018-07-25T01:02:56.419Z,98841.23
2018-07-25T01:05:58.794Z,98846.08
2018-07-25T01:09:01.183Z,98848.88
2018-07-25T01:12:03.565Z,98844.91
2018-07-25T01:15:06.967Z,98847.62
2018-07-25T01:18:09.352Z,98846.11
2018-07-25T01:21:11.901Z,98838.25
2018-07-25T01:24:14.248Z,98840.44
2018-07-25T01:27:16.685Z,98839.99
2018-07-25T01:30:19.391Z,98839.47
2018-07-25T01:33:21.785Z,98836.15
2018-07-25T01:36:24.133Z,98847.97
2018-07-25T01:39:26.555Z,98848.11
2018-07-25T01:42:28.917Z,98853.31
2018-07-25T01:45:31.426Z,98852.34
2018-07-25T01:48:33.774Z,98855.44
2018-07-25T01:51:36.210Z,98854.98
2018-07-25T01:54:38.571Z,98849.23
2018-07-25T01:57:40.967Z,98855.11
2018-07-25T02:00:45.969Z,98858.05
2018-07-25T02:03:48.427Z,98851.66
2018-07-25T02:06:50.890Z,98859.08
2018-07-25T02:09:53.773Z,98857.37
2018-07-25T02:12:56.123Z,98857.97
2018-07-25T02:15:58.692Z,98854.09
2018-07-25T02:19:01.308Z,98853.23
2018-07-25T02:22:03.620Z,98851.34
2018-07-25T02:25:06.031Z,98863.59
2018-07-25T02:28:08.439Z,98858.77
2018-07-25T02:31:10.807Z,98867.15
2018-07-25T02:34:19.183Z,98871.27
2018-07-25T02:37:21.830Z,98869.73
2018-07-25T02:40:24.220Z,98878.98
2018-07-25T02:43:26.655Z,98878.75
2018-07-25T02:46:29.106Z,98880.20
2018-07-25T02:49:31.670Z,98887.47
2018-07-25T02:52:34.123Z,98887.81
2018-07-25T02:55:36.670Z,98889.96
2018-07-25T02:58:39.044Z,98892.06
2018-07-25T03:01:41.434Z,98900.93
2018-07-25T03:04:43.694Z,98899.14
2018-07-25T03:07:46.082Z,98903.95
2018-07-25T03:10:53.855Z,98903.27
2018-07-25T03:13:56.299Z,98904.30
2018-07-25T03:16:58.814Z,98901.14
2018-07-25T03:20:01.191Z,98904.42
2018-07-25T03:23:04.261Z,98893.89
2018-07-25T03:26:06.860Z,98898.41
2018-07-25T03:29:43.249Z,98906.00
2018-07-25T03:32:45.733Z,98898.62
2018-07-25T03:35:48.320Z,98900.35
2018-07-25T03:38:50.724Z,98908.30
2018-07-25T03:41:53.265Z,98904.88
2018-07-25T03:44:55.750Z,98906.48
2018-07-25T03:47:58.151Z,98912.09
2018-07-25T03:51:00.729Z,98906.90
2018-07-25T03:54:03.250Z,98904.16
2018-07-25T03:57:05.698Z,98917.66
2018-07-25T04:00:08.228Z,98917.96
2018-07-25T04:03:10.769Z,98922.65
2018-07-25T04:06:13.200Z,98921.31
2018-07-25T04:09:15.720Z,98928.30
2018-07-25T04:12:18.166Z,98927.68
2018-07-25T04:15:20.577Z,98923.70
2018-07-25T04:18:23.266Z,98922.59
2018-07-25T04:21:25.838Z,98928.77
2018-07-25T04:24:28.279Z,98926.91
2018-07-25T04:27:30.630Z,98929.31
2018-07-25T04:30:32.933Z,98930.58
2018-07-25T04:33:35.365Z,98932.84
2018-07-25T04:36:37.859Z,98940.87
2018-07-25T04:39:40.329Z,98939.36
2018-07-25T04:42:42.632Z,98942.80
2018-07-25T04:45:45.020Z,98940.45
2018-07-25T04:48:47.263Z,98945.89
2018-07-25T04:51:49.707Z,98939.20
2018-07-25T04:54:52.164Z,98936.44
2018-07-25T04:57:54.684Z,98938.64
2018-07-25T05:00:57.883Z,98933.80
2018-07-25T05:04:00.396Z,98924.67
2018-07-25T05:07:02.879Z,98926.18
2018-07-25T05:10:05.339Z,98930.27
2018-07-25T05:13:07.933Z,98932.90
2018-07-25T05:16:10.547Z,98942.87
2018-07-25T05:19:12.969Z,98945.30
2018-07-25T05:22:16.236Z,98941.30
2018-07-25T05:25:18.625Z,98952.55
2018-07-25T05:28:21.227Z,98957.38
2018-07-25T05:31:23.666Z,98965.80
2018-07-25T05:34:26.182Z,98964.75
2018-07-25T05:37:28.716Z,98967.42
2018-07-25T05:40:31.070Z,98976.66
2018-07-25T05:43:33.593Z,98969.59
2018-07-25T05:46:36.401Z,98978.24
2018-07-25T05:49:38.784Z,98972.27
2018-07-25T05:52:41.257Z,98969.44
2018-07-25T05:55:43.753Z,98974.06
2018-07-25T05:58:46.228Z,98974.84
2018-07-25T06:01:48.648Z,98967.86
2018-07-25T06:04:51.496Z,98956.23
2018-07-25T06:07:54.250Z,98967.58
2018-07-25T06:10:56.725Z,98965.19
2018-07-25T06:13:59.186Z,98960.25
2018-07-25T06:17:01.672Z,98946.16
2018-07-25T06:20:06.277Z,98922.91
2018-07-25T06:23:08.879Z,98943.55
2018-07-25T06:26:11.924Z,98965.90
2018-07-25T06:29:14.643Z,98947.61
2018-07-25T06:32:17.241Z,98958.04
2018-07-25T06:35:19.840Z,99008.42
2018-07-25T06:38:22.282Z,98996.38
2018-07-25T06:41:25.302Z,98990.64
2018-07-25T06:44:27.883Z,98976.05
2018-07-25T06:47:30.451Z,98987.20
2018-07-25T06:50:32.846Z,98980.92
2018-07-25T06:53:35.300Z,98979.06
2018-07-25T06:56:37.693Z,98981.52
2018-07-25T06:59:40.183Z,98940.58
2018-07-25T07:02:42.637Z,98925.03
2018-07-25T07:05:45.893Z,98924.31
2018-07-25T07:08:48.886Z,98929.25
2018-07-25T07:11:51.442Z,98881.70
2018-07-25T07:14:54.166Z,98862.17
2018-07-25T07:17:56.692Z,98935.08
2018-07-25T07:20:59.255Z,98972.71
2018-07-25T07:24:01.832Z,98895.53
2018-07-25T07:27:04.340Z,98905.39
2018-07-25T07:30:06.814Z,98933.11
2018-07-25T07:33:09.350Z,98950.27
2018-07-25T07:36:11.934Z,98971.03
2018-07-25T07:39:14.408Z,98930.16
2018-07-25T07:42:16.946Z,99005.64
2018-07-25T07:45:19.637Z,99029.80
2018-07-25T07:48:21.910Z,99023.67
2018-07-25T07:51:24.405Z,99027.98
2018-07-25T07:54:27.016Z,99036.25
2018-07-25T07:57:29.408Z,99056.30
2018-07-25T08:00:31.871Z,99002.20
2018-07-25T08:03:34.366Z,99002.19
2018-07-25T08:06:36.649Z,98967.50
2018-07-25T08:09:39.104Z,99003.92
2018-07-25T08:12:41.554Z,99017.78
2018-07-25T08:15:44.075Z,99019.70
2018-07-25T08:18:46.786Z,99025.87
2018-07-25T08:21:49.122Z,99013.03
2018-07-25T08:24:51.533Z,99016.51
2018-07-25T08:27:54.069Z,99015.16
2018-07-25T08:30:56.663Z,99006.10
2018-07-25T08:33:59.177Z,99005.22
2018-07-25T08:37:01.622Z,98984.48
2018-07-25T08:40:05.304Z,98946.10
2018-07-25T08:43:07.759Z,98964.59
2018-07-25T08:46:11.085Z,98962.20
2018-07-25T08:49:13.767Z,98972.33
2018-07-25T08:52:16.303Z,98974.57
2018-07-25T08:55:18.630Z,98981.12
2018-07-25T08:58:20.892Z,98989.30
2018-07-25T09:01:23.440Z,98974.48
2018-07-25T09:04:25.981Z,98955.23
2018-07-25T09:07:28.492Z,98966.44
2018-07-25T09:10:31.015Z,98960.52
2018-07-25T09:13:33.628Z,98948.03
2018-07-25T09:16:36.150Z,98936.50
2018-07-25T09:19:38.560Z,98914.72
2018-07-25T09:22:40.939Z,98932.88
2018-07-25T09:25:43.479Z,98891.68
2018-07-25T09:28:45.959Z,98904.30
2018-07-25T09:31:48.250Z,98864.84
2018-07-25T09:34:50.810Z,98915.82
2018-07-25T09:37:53.250Z,98927.33
2018-07-25T09:40:55.696Z,98974.51
2018-07-25T09:43:58.172Z,98939.20
2018-07-25T09:47:00.659Z,98974.95
2018-07-25T09:50:03.115Z,98976.81
2018-07-25T09:53:05.616Z,98968.60
2018-07-25T09:56:08.092Z,98972.11
2018-07-25T09:59:10.530Z,98918.86
2018-07-25T10:02:13.033Z,98883.16
2018-07-25T10:05:15.453Z,98881.88
2018-07-25T10:08:18.019Z,98859.66
2018-07-25T10:11:22.166Z,98853.16
2018-07-25T10:14:24.530Z,98890.50
2018-07-25T10:17:26.933Z,98792.83
2018-07-25T10:20:29.317Z,98701.75
2018-07-25T10:23:31.861Z,98667.52
2018-07-25T10:26:34.908Z,98726.55
2018-07-25T10:29:37.417Z,98746.94
2018-07-25T10:32:39.831Z,98788.80
2018-07-25T10:35:42.400Z,98685.34
2018-07-25T10:38:44.868Z,98587.28
2018-07-25T10:41:47.211Z,98595.95
2018-07-25T10:44:49.785Z,98688.95
2018-07-25T10:47:52.275Z,98804.73
2018-07-25T10:50:54.816Z,98683.03
2018-07-25T10:53:57.362Z,98671.23
2018-07-25T10:56:59.859Z,98675.17
2018-07-25T11:00:02.695Z,98723.91
2018-07-25T11:03:05.103Z,98701.09
2018-07-25T11:06:07.688Z,98757.59
2018-07-25T11:09:10.488Z,98754.91
2018-07-25T11:12:13.012Z,98810.75
2018-07-25T11:15:15.496Z,98783.06
2018-07-25T11:18:17.945Z,98702.99
2018-07-25T11:21:20.438Z,98705.48
2018-07-25T11:24:22.801Z,98563.33
2018-07-25T11:27:25.208Z,98533.28
2018-07-25T11:30:27.409Z,98572.01
2018-07-25T11:33:29.831Z,98643.61
2018-07-25T11:36:32.333Z,98636.25
2018-07-25T11:39:34.877Z,98682.59
2018-07-25T11:42:37.153Z,98745.81
2018-07-25T11:45:39.693Z,98719.17
2018-07-25T11:48:42.083Z,98758.37
2018-07-25T11:51:44.647Z,98771.41
2018-07-25T11:54:47.129Z,98793.59
2018-07-25T11:57:49.535Z,98780.22
2018-07-25T12:00:51.939Z,98867.11
2018-07-25T12:03:54.340Z,98835.28
2018-07-25T12:06:56.918Z,98876.85
2018-07-25T12:09:59.378Z,98882.13
2018-07-25T12:13:01.859Z,98861.44
2018-07-25T12:16:04.528Z,98808.06
2018-07-25T12:19:07.170Z,98825.92
2018-07-25T12:22:09.696Z,98945.67
2018-07-25T12:25:12.274Z,98779.55
2018-07-25T12:28:14.847Z,98730.06
2018-07-25T12:31:17.338Z,98815.94
2018-07-25T12:34:19.812Z,98705.18
2018-07-25T12:37:22.390Z,98761.27
2018-07-25T12:40:25.004Z,98636.30
2018-07-25T12:43:27.337Z,98598.23
2018-07-25T12:46:29.769Z,98593.17
2018-07-25T12:49:32.241Z,98578.45
2018-07-25T12:52:35.031Z,98435.23
2018-07-25T12:55:37.501Z,98633.44
2018-07-25T12:58:40.037Z,98707.32
2018-07-25T13:01:42.632Z,98713.13
2018-07-25T13:04:44.992Z,98587.04
2018-07-25T13:07:47.466Z,98554.33
2018-07-25T13:10:49.951Z,98771.41
2018-07-25T13:13:52.325Z,98860.65
2018-07-25T13:16:54.620Z,98855.92
2018-07-25T13:19:57.088Z,98739.91
2018-07-25T13:22:59.633Z,98779.36
2018-07-25T13:26:02.057Z,98673.47
2018-07-25T13:29:04.546Z,98696.86
2018-07-25T13:32:07.212Z,98745.09
2018-07-25T13:35:09.802Z,98786.89
2018-07-25T13:38:12.243Z,98692.56
2018-07-25T13:41:14.701Z,98734.27
2018-07-25T13:44:17.195Z,98509.02
2018-07-25T13:47:19.710Z,98346.28
2018-07-25T13:50:22.161Z,98301.48
2018-07-25T13:53:24.560Z,98216.27
2018-07-25T13:56:27.089Z,98274.74
2018-07-25T13:59:29.633Z,98351.34
2018-07-25T14:02:32.088Z,98402.92
2018-07-25T14:05:34.630Z,98258.13
2018-07-25T14:08:37.289Z,98246.38
2018-07-25T14:11:40.177Z,98252.39
2018-07-25T14:16:42.847Z,98152.86
2018-07-25T14:19:45.263Z,98095.17
2018-07-25T14:22:47.611Z,98133.01
2018-07-25T14:25:50.035Z,98197.58
2018-07-25T14:28:52.504Z,98326.62
2018-07-25T14:31:54.822Z,98424.41
2018-07-25T14:34:57.246Z,98431.94
2018-07-25T14:37:59.702Z,98428.66
2018-07-25T14:41:02.078Z,98442.67
2018-07-25T14:44:04.544Z,98308.87
2018-07-25T14:47:08.040Z,98184.46
2018-07-25T14:50:10.366Z,98096.94
2018-07-25T14:53:12.724Z,98317.51
2018-07-25T14:56:15.397Z,98218.50
2018-07-25T14:59:17.724Z,98185.72
2018-07-25T15:02:20.089Z,98223.61
2018-07-25T15:05:22.530Z,98089.63
2018-07-25T15:08:25.334Z,98053.80
2018-07-25T15:11:27.943Z,98015.23
2018-07-25T15:14:30.323Z,97953.84
2018-07-25T15:17:32.832Z,98024.79
2018-07-25T15:20:35.219Z,98023.38
2018-07-25T15:24:00.998Z,97887.63
2018-07-25T15:27:03.470Z,97836.80
2018-07-25T15:30:07.652Z,97798.91
2018-07-25T15:33:09.923Z,97806.05
2018-07-25T15:36:48.184Z,97943.96
2018-07-25T15:39:50.675Z,98324.97
2018-07-25T15:42:53.212Z,98782.09
2018-07-25T15:45:55.811Z,99139.02
2018-07-25T15:48:58.224Z,99381.01
2018-07-25T15:52:00.700Z,99707.37
2018-07-25T15:55:03.133Z,99632.02
2018-07-25T15:58:05.882Z,98823.48
2018-07-25T16:01:08.499Z,98798.16
2018-07-25T16:04:10.919Z,98792.13
2018-07-25T16:07:13.420Z,98779.91
2018-07-25T16:10:17.890Z,98793.11
2018-07-25T16:13:20.455Z,98786.22
2018-07-25T16:16:25.550Z,98781.58
2018-07-25T16:19:28.334Z,98786.35
2018-07-25T16:22:31.904Z,98787.20
2018-07-25T16:25:34.489Z,98774.87
2018-07-25T16:28:37.123Z,98777.99
2018-07-25T16:31:39.713Z,98775.31
2018-07-25T16:34:42.370Z,98760.32
2018-07-25T16:37:44.930Z,98768.07
2018-07-25T16:40:47.301Z,98765.92
2018-07-25T16:43:49.776Z,98764.44
2018-07-25T16:46:52.258Z,98768.49
2018-07-25T16:49:54.749Z,98775.63
2018-07-25T16:52:57.278Z,98772.09
2018-07-25T16:56:00.000Z,98778.33
2018-07-25T16:59:02.680Z,98784.01
2018-07-25T17:02:06.244Z,98784.19
2018-07-25T17:05:08.759Z,98781.98
2018-07-25T17:08:11.359Z,98769.23
2018-07-25T17:11:14.065Z,98768.68
2018-07-25T17:14:16.600Z,98763.30
2018-07-25T17:17:19.083Z,98776.06
2018-07-25T17:20:21.572Z,98776.94
2018-07-25T17:23:25.151Z,98774.68
2018-07-25T17:26:27.628Z,98728.19
2018-07-25T17:29:30.182Z,98698.05
2018-07-25T17:32:33.780Z,98689.69
2018-07-25T17:35:36.154Z,98689.34
2018-07-25T17:38:38.573Z,98699.67
2018-07-25T17:41:41.771Z,98720.13
2018-07-25T17:44:44.405Z,98740.86
2018-07-25T17:47:47.200Z,98755.03
2018-07-25T17:50:49.993Z,98738.70
2018-07-25T17:53:52.756Z,98770.34
2018-07-25T17:56:55.502Z,98769.33
2018-07-25T17:59:58.174Z,98768.38
2018-07-25T18:03:01.021Z,98801.08
2018-07-25T18:06:04.288Z,98817.89
2018-07-25T18:09:08.196Z,98826.92
2018-07-25T18:12:12.091Z,98849.14
2018-07-25T18:15:15.078Z,98831.19
2018-07-25T18:18:17.627Z,98834.47
2018-07-25T18:21:20.498Z,98829.06
2018-07-25T18:24:23.199Z,98833.63
2018-07-25T18:27:26.063Z,98835.98
2018-07-25T18:30:28.876Z,98839.06
2018-07-25T18:33:31.540Z,98845.48
2018-07-25T18:36:34.146Z,98847.26
2018-07-25T18:39:36.995Z,98854.80
2018-07-25T18:42:39.654Z,98869.09
2018-07-25T18:45:42.471Z,98860.99
2018-07-25T18:48:45.272Z,98860.92
2018-07-25T18:51:48.207Z,98859.47
2018-07-25T18:54:51.707Z,98866.86
2018-07-25T18:57:54.114Z,98872.21
2018-07-25T19:00:56.692Z,98878.41
2018-07-25T19:03:59.310Z,98881.09
2018-07-25T19:07:01.807Z,98884.16
2018-07-25T19:10:04.594Z,98879.08
2018-07-25T19:13:12.861Z,98893.84
2018-07-25T19:16:15.414Z,98899.56
2018-07-25T19:19:17.869Z,98909.02
2018-07-25T19:22:20.461Z,98917.43
2018-07-25T19:25:22.900Z,98918.54
2018-07-25T19:28:25.403Z,98918.45
2018-07-25T19:31:28.004Z,98921.66
2018-07-25T19:34:30.508Z,98926.06
2018-07-25T19:37:33.061Z,98937.16
2018-07-25T19:40:35.857Z,98933.45
2018-07-25T19:43:38.494Z,98935.63
2018-07-25T19:46:41.440Z,98935.11
2018-07-25T19:49:43.977Z,98933.79
2018-07-25T19:52:47.413Z,98944.50
2018-07-25T19:55:49.886Z,98939.96
2018-07-25T19:58:52.339Z,98937.02
2018-07-25T20:01:54.752Z,98939.13
2018-07-25T20:04:57.323Z,98934.84
2018-07-25T20:07:59.991Z,98942.61
2018-07-25T20:11:05.604Z,98929.71
2018-07-25T20:14:13.673Z,98943.63
2018-07-25T20:17:16.446Z,98931.31
2018-07-25T20:20:18.964Z,98934.23
2018-07-25T20:23:21.479Z,98943.03
2018-07-25T20:26:23.771Z,98938.75
2018-07-25T20:29:26.213Z,98932.91
2018-07-25T20:32:28.713Z,98936.66
2018-07-25T20:35:31.133Z,98928.35
2018-07-25T20:38:33.657Z,98928.61
2018-07-25T20:41:36.114Z,98934.14
2018-07-25T20:44:38.502Z,98936.92
2018-07-25T20:47:41.183Z,98948.33
2018-07-25T20:50:44.279Z,98977.97
2018-07-25T20:53:47.207Z,98961.25
2018-07-25T20:56:49.834Z,98966.25
2018-07-25T20:59:52.302Z,98964.43
2018-07-25T21:02:55.799Z,98955.86
2018-07-25T21:05:58.267Z,98959.05
2018-07-25T21:09:00.630Z,98954.47
2018-07-25T21:12:03.085Z,98952.06
2018-07-25T21:15:05.648Z,98957.97
2018-07-25T21:18:07.918Z,98953.70
2018-07-25T21:21:10.482Z,98959.35
2018-07-25T21:24:12.713Z,98955.91
2018-07-25T21:27:15.087Z,98961.56
2018-07-25T21:30:17.465Z,98956.75
2018-07-25T21:33:19.797Z,98958.08
2018-07-25T21:36:22.177Z,98962.63
2018-07-25T21:39:24.541Z,98957.81
2018-07-25T21:42:27.117Z,98954.59
2018-07-25T21:45:29.517Z,98961.23
2018-07-25T21:48:31.873Z,98965.47
2018-07-25T21:51:34.184Z,98965.34
2018-07-25T21:54:36.434Z,98969.20
2018-07-25T21:57:38.767Z,98962.81
2018-07-25T22:00:45.591Z,98961.22
2018-07-25T22:03:48.583Z,98959.19
2018-07-25T22:06:51.161Z,98976.13
2018-07-25T22:09:54.039Z,98969.84
2018-07-25T22:12:57.229Z,98966.98
2018-07-25T22:16:02.169Z,98964.39
2018-07-25T22:19:04.693Z,98961.30
2018-07-25T22:22:37.342Z,98960.89
2018-07-25T22:25:39.933Z,98959.65
2018-07-25T22:28:42.654Z,98949.56
2018-07-25T22:31:45.083Z,98950.75
2018-07-25T22:34:47.561Z,98948.69
2018-07-25T22:37:49.948Z,98951.16
2018-07-25T22:40:52.361Z,98948.51
2018-07-25T22:43:54.693Z,98944.50
2018-07-25T22:46:57.153Z,98943.16
2018-07-25T22:49:59.589Z,98936.94
2018-07-25T22:53:02.031Z,98942.83
2018-07-25T22:56:04.558Z,98947.67
2018-07-25T22:59:06.891Z,98949.61
2018-07-25T23:02:09.270Z,98952.23
2018-07-25T23:05:11.759Z,98944.73
2018-07-25T23:08:14.156Z,98952.19
2018-07-25T23:11:16.485Z,98953.39
2018-07-25T23:14:19.104Z,98949.79
2018-07-25T23:17:21.474Z,98941.91
2018-07-25T23:20:23.999Z,98939.69
2018-07-25T23:23:26.445Z,98949.56
2018-07-25T23:26:28.835Z,98949.98
2018-07-25T23:29:31.344Z,98942.56
2018-07-25T23:32:33.823Z,98936.06
2018-07-25T23:35:36.201Z,98937.55
2018-07-25T23:38:38.441Z,98940.02
2018-07-25T23:41:40.877Z,98938.64
2018-07-25T23:44:43.230Z,98939.92
2018-07-25T23:47:45.578Z,98937.75
2018-07-25T23:50:47.913Z,98941.92
2018-07-25T23:53:50.170Z,98941.70
2018-07-25T23:56:52.474Z,98942.35
2018-07-25T23:59:54.895Z,98940.20
